sensor_id;sensor_type;location;lat;lon;timestamp;pressure;altitude;pressure_sealevel;temperature
48894;BMP280;34710;35.798;139.446;2023-04-01T00:00:35;100804.66;;;19.67
48894;BMP280;34710;35.798;139.446;2023-04-01T00:03:00;100803.56;;;20.11
48894;BMP280;34710;35.798;139.446;2023-04-01T00:05:26;100792.43;;;20.14
48894;BMP280;34710;35.798;139.446;2023-04-01T00:07:51;100797.33;;;20.06
48894;BMP280;34710;35.798;139.446;2023-04-01T00:10:16;100794.76;;;20.18
48894;BMP280;34710;35.798;139.446;2023-04-01T00:12:41;100795.35;;;21.01
48894;BMP280;34710;35.798;139.446;2023-04-01T00:15:09;100797.93;;;21.09
48894;BMP280;34710;35.798;139.446;2023-04-01T00:17:33;100795.39;;;20.25
48894;BMP280;34710;35.798;139.446;2023-04-01T00:19:58;100795.51;;;20.44
48894;BMP280;34710;35.798;139.446;2023-04-01T00:22:23;100800.56;;;20.86
48894;BMP280;34710;35.798;139.446;2023-04-01T00:24:48;100796.00;;;21.30
48894;BMP280;34710;35.798;139.446;2023-04-01T00:27:14;100795.98;;;21.73
48894;BMP280;34710;35.798;139.446;2023-04-01T00:29:41;100797.88;;;21.90
48894;BMP280;34710;35.798;139.446;2023-04-01T00:32:04;100795.52;;;22.35
48894;BMP280;34710;35.798;139.446;2023-04-01T00:34:29;100800.17;;;22.68
48894;BMP280;34710;35.798;139.446;2023-04-01T00:36:55;100803.05;;;23.00
48894;BMP280;34710;35.798;139.446;2023-04-01T00:39:21;100801.54;;;22.97
48894;BMP280;34710;35.798;139.446;2023-04-01T00:41:46;100797.49;;;22.50
48894;BMP280;34710;35.798;139.446;2023-04-01T00:44:17;100794.76;;;22.78
48894;BMP280;34710;35.798;139.446;2023-04-01T00:46:36;100794.82;;;22.15
48894;BMP280;34710;35.798;139.446;2023-04-01T00:49:02;100788.77;;;22.25
48894;BMP280;34710;35.798;139.446;2023-04-01T00:51:28;100785.39;;;22.59
48894;BMP280;34710;35.798;139.446;2023-04-01T00:53:55;100783.98;;;23.25
48894;BMP280;34710;35.798;139.446;2023-04-01T00:56:21;100783.38;;;23.63
48894;BMP280;34710;35.798;139.446;2023-04-01T00:58:46;100780.95;;;23.62
48894;BMP280;34710;35.798;139.446;2023-04-01T01:01:09;100775.50;;;23.74
48894;BMP280;34710;35.798;139.446;2023-04-01T01:03:35;100773.36;;;23.86
48894;BMP280;34710;35.798;139.446;2023-04-01T01:06:11;100771.22;;;23.76
48894;BMP280;34710;35.798;139.446;2023-04-01T01:08:31;100762.53;;;24.10
48894;BMP280;34710;35.798;139.446;2023-04-01T01:10:50;100757.58;;;24.06
48894;BMP280;34710;35.798;139.446;2023-04-01T01:13:20;100753.83;;;24.27
48894;BMP280;34710;35.798;139.446;2023-04-01T01:15:46;100750.53;;;24.31
48894;BMP280;34710;35.798;139.446;2023-04-01T01:18:12;100750.39;;;25.01
48894;BMP280;34710;35.798;139.446;2023-04-01T01:25:32;100749.53;;;25.31
48894;BMP280;34710;35.798;139.446;2023-04-01T01:27:54;100745.00;;;25.36
48894;BMP280;34710;35.798;139.446;2023-04-01T01:30:21;100742.58;;;25.41
48894;BMP280;34710;35.798;139.446;2023-04-01T01:32:53;100736.99;;;25.45
48894;BMP280;34710;35.798;139.446;2023-04-01T01:35:16;100734.01;;;25.65
48894;BMP280;34710;35.798;139.446;2023-04-01T01:37:30;100729.30;;;25.56
48894;BMP280;34710;35.798;139.446;2023-04-01T01:39:58;100727.62;;;25.83
48894;BMP280;34710;35.798;139.446;2023-04-01T01:42:22;100728.06;;;26.13
48894;BMP280;34710;35.798;139.446;2023-04-01T01:44:48;100727.26;;;26.62
48894;BMP280;34710;35.798;139.446;2023-04-01T01:47:11;100722.28;;;26.01
48894;BMP280;34710;35.798;139.446;2023-04-01T01:49:37;100721.50;;;25.96
48894;BMP280;34710;35.798;139.446;2023-04-01T01:52:02;100719.17;;;26.05
48894;BMP280;34710;35.798;139.446;2023-04-01T01:54:27;100719.09;;;26.43
48894;BMP280;34710;35.798;139.446;2023-04-01T01:56:59;100718.61;;;26.39
48894;BMP280;34710;35.798;139.446;2023-04-01T01:59:19;100717.82;;;26.43
48894;BMP280;34710;35.798;139.446;2023-04-01T02:01:52;100720.10;;;26.80
48894;BMP280;34710;35.798;139.446;2023-04-01T02:04:11;100713.85;;;25.35
48894;BMP280;34710;35.798;139.446;2023-04-01T02:06:37;100714.83;;;26.41
48894;BMP280;34710;35.798;139.446;2023-04-01T02:09:02;100713.24;;;26.64
48894;BMP280;34710;35.798;139.446;2023-04-01T02:11:27;100706.93;;;27.00
48894;BMP280;34710;35.798;139.446;2023-04-01T02:13:53;100698.39;;;27.01
48894;BMP280;34710;35.798;139.446;2023-04-01T02:16:18;100695.31;;;26.82
48894;BMP280;34710;35.798;139.446;2023-04-01T02:18:42;100695.93;;;27.19
48894;BMP280;34710;35.798;139.446;2023-04-01T02:21:08;100695.60;;;26.99
48894;BMP280;34710;35.798;139.446;2023-04-01T02:23:33;100688.94;;;27.19
48894;BMP280;34710;35.798;139.446;2023-04-01T02:25:57;100689.46;;;27.29
48894;BMP280;34710;35.798;139.446;2023-04-01T02:28:24;100680.48;;;27.42
48894;BMP280;34710;35.798;139.446;2023-04-01T02:30:48;100676.11;;;27.41
48894;BMP280;34710;35.798;139.446;2023-04-01T02:33:13;100677.11;;;27.46
48894;BMP280;34710;35.798;139.446;2023-04-01T02:35:38;100675.81;;;27.35
48894;BMP280;34710;35.798;139.446;2023-04-01T02:38:05;100671.12;;;27.54
48894;BMP280;34710;35.798;139.446;2023-04-01T02:40:40;100668.94;;;27.37
48894;BMP280;34710;35.798;139.446;2023-04-01T02:42:55;100665.07;;;27.48
48894;BMP280;34710;35.798;139.446;2023-04-01T02:45:20;100661.12;;;27.81
48894;BMP280;34710;35.798;139.446;2023-04-01T02:47:45;100656.39;;;27.63
48894;BMP280;34710;35.798;139.446;2023-04-01T02:50:11;100657.71;;;27.59
48894;BMP280;34710;35.798;139.446;2023-04-01T02:52:37;100650.49;;;26.84
48894;BMP280;34710;35.798;139.446;2023-04-01T02:55:01;100651.47;;;27.34
48894;BMP280;34710;35.798;139.446;2023-04-01T02:57:27;100649.05;;;26.98
48894;BMP280;34710;35.798;139.446;2023-04-01T02:59:53;100645.03;;;27.11
48894;BMP280;34710;35.798;139.446;2023-04-01T03:02:18;100638.42;;;27.24
48894;BMP280;34710;35.798;139.446;2023-04-01T03:04:43;100629.24;;;27.47
48894;BMP280;34710;35.798;139.446;2023-04-01T03:07:09;100633.22;;;26.45
48894;BMP280;34710;35.798;139.446;2023-04-01T03:09:34;100628.01;;;24.83
48894;BMP280;34710;35.798;139.446;2023-04-01T03:11:59;100626.03;;;25.17
48894;BMP280;34710;35.798;139.446;2023-04-01T03:14:24;100623.38;;;25.75
48894;BMP280;34710;35.798;139.446;2023-04-01T03:16:50;100618.54;;;25.78
48894;BMP280;34710;35.798;139.446;2023-04-01T03:19:16;100613.08;;;26.23
48894;BMP280;34710;35.798;139.446;2023-04-01T03:21:41;100615.64;;;26.56
48894;BMP280;34710;35.798;139.446;2023-04-01T03:24:07;100613.58;;;27.24
48894;BMP280;34710;35.798;139.446;2023-04-01T03:26:31;100615.90;;;26.69
48894;BMP280;34710;35.798;139.446;2023-04-01T03:28:57;100606.88;;;25.54
48894;BMP280;34710;35.798;139.446;2023-04-01T03:31:22;100604.56;;;25.98
48894;BMP280;34710;35.798;139.446;2023-04-01T03:33:48;100600.07;;;25.48
48894;BMP280;34710;35.798;139.446;2023-04-01T03:36:13;100601.29;;;25.42
48894;BMP280;34710;35.798;139.446;2023-04-01T03:38:39;100592.94;;;25.42
48894;BMP280;34710;35.798;139.446;2023-04-01T03:41:04;100593.30;;;25.74
48894;BMP280;34710;35.798;139.446;2023-04-01T03:43:30;100589.29;;;26.62
48894;BMP280;34710;35.798;139.446;2023-04-01T03:45:55;100579.19;;;27.24
48894;BMP280;34710;35.798;139.446;2023-04-01T03:48:20;100578.51;;;27.31
48894;BMP280;34710;35.798;139.446;2023-04-01T03:50:46;100574.86;;;27.64
48894;BMP280;34710;35.798;139.446;2023-04-01T03:53:11;100573.97;;;27.82
48894;BMP280;34710;35.798;139.446;2023-04-01T03:55:37;100568.44;;;27.55
48894;BMP280;34710;35.798;139.446;2023-04-01T03:58:01;100567.37;;;27.97
48894;BMP280;34710;35.798;139.446;2023-04-01T04:00:27;100564.07;;;26.89
48894;BMP280;34710;35.798;139.446;2023-04-01T04:02:53;100559.79;;;26.72
48894;BMP280;34710;35.798;139.446;2023-04-01T04:05:18;100555.13;;;26.64
48894;BMP280;34710;35.798;139.446;2023-04-01T04:07:43;100542.75;;;25.78
48894;BMP280;34710;35.798;139.446;2023-04-01T04:10:09;100538.39;;;25.62
48894;BMP280;34710;35.798;139.446;2023-04-01T04:12:34;100534.71;;;25.30
48894;BMP280;34710;35.798;139.446;2023-04-01T04:14:59;100535.21;;;24.32
48894;BMP280;34710;35.798;139.446;2023-04-01T04:17:25;100530.10;;;23.81
48894;BMP280;34710;35.798;139.446;2023-04-01T04:19:51;100526.92;;;23.62
48894;BMP280;34710;35.798;139.446;2023-04-01T04:22:15;100526.50;;;24.31
48894;BMP280;34710;35.798;139.446;2023-04-01T04:24:41;100530.94;;;24.45
48894;BMP280;34710;35.798;139.446;2023-04-01T04:27:07;100531.31;;;23.93
48894;BMP280;34710;35.798;139.446;2023-04-01T04:29:32;100528.42;;;24.96
48894;BMP280;34710;35.798;139.446;2023-04-01T04:31:57;100525.78;;;25.66
48894;BMP280;34710;35.798;139.446;2023-04-01T04:34:22;100521.77;;;24.63
48894;BMP280;34710;35.798;139.446;2023-04-01T04:36:48;100523.96;;;25.53
48894;BMP280;34710;35.798;139.446;2023-04-01T04:39:13;100520.99;;;26.37
48894;BMP280;34710;35.798;139.446;2023-04-01T04:41:39;100519.74;;;26.41
48894;BMP280;34710;35.798;139.446;2023-04-01T04:44:04;100513.31;;;26.72
48894;BMP280;34710;35.798;139.446;2023-04-01T04:46:29;100511.00;;;26.83
48894;BMP280;34710;35.798;139.446;2023-04-01T04:48:55;100510.69;;;25.64
48894;BMP280;34710;35.798;139.446;2023-04-01T04:51:21;100507.23;;;26.30
48894;BMP280;34710;35.798;139.446;2023-04-01T04:53:46;100499.05;;;27.08
48894;BMP280;34710;35.798;139.446;2023-04-01T04:56:11;100497.59;;;26.64
48894;BMP280;34710;35.798;139.446;2023-04-01T04:58:36;100497.91;;;27.08
48894;BMP280;34710;35.798;139.446;2023-04-01T05:01:06;100491.22;;;27.01
48894;BMP280;34710;35.798;139.446;2023-04-01T05:03:27;100494.80;;;26.16
48894;BMP280;34710;35.798;139.446;2023-04-01T05:05:54;100489.72;;;25.73
48894;BMP280;34710;35.798;139.446;2023-04-01T05:08:18;100484.60;;;26.39
48894;BMP280;34710;35.798;139.446;2023-04-01T05:10:43;100487.36;;;25.93
48894;BMP280;34710;35.798;139.446;2023-04-01T05:13:09;100482.03;;;26.55
48894;BMP280;34710;35.798;139.446;2023-04-01T05:15:34;100477.82;;;26.76
48894;BMP280;34710;35.798;139.446;2023-04-01T05:18:00;100477.49;;;27.24
48894;BMP280;34710;35.798;139.446;2023-04-01T05:20:25;100475.94;;;26.25
48894;BMP280;34710;35.798;139.446;2023-04-01T05:22:53;100472.11;;;25.35
48894;BMP280;34710;35.798;139.446;2023-04-01T05:25:15;100471.74;;;25.67
48894;BMP280;34710;35.798;139.446;2023-04-01T05:27:41;100470.77;;;25.08
48894;BMP280;34710;35.798;139.446;2023-04-01T05:30:10;100466.31;;;25.40
48894;BMP280;34710;35.798;139.446;2023-04-01T05:32:32;100472.91;;;24.30
48894;BMP280;34710;35.798;139.446;2023-04-01T05:34:57;100470.19;;;24.80
48894;BMP280;34710;35.798;139.446;2023-04-01T05:37:23;100472.00;;;25.03
48894;BMP280;34710;35.798;139.446;2023-04-01T05:39:48;100474.72;;;24.95
48894;BMP280;34710;35.798;139.446;2023-04-01T05:42:13;100473.92;;;24.98
48894;BMP280;34710;35.798;139.446;2023-04-01T05:44:39;100472.43;;;24.42
48894;BMP280;34710;35.798;139.446;2023-04-01T05:47:05;100470.62;;;24.70
48894;BMP280;34710;35.798;139.446;2023-04-01T05:49:29;100471.92;;;23.50
48894;BMP280;34710;35.798;139.446;2023-04-01T05:51:55;100472.42;;;23.16
48894;BMP280;34710;35.798;139.446;2023-04-01T05:54:20;100472.29;;;23.82
48894;BMP280;34710;35.798;139.446;2023-04-01T05:56:45;100474.21;;;23.71
48894;BMP280;34710;35.798;139.446;2023-04-01T05:59:12;100483.32;;;23.31
48894;BMP280;34710;35.798;139.446;2023-04-01T06:01:36;100481.97;;;23.69
48894;BMP280;34710;35.798;139.446;2023-04-01T06:04:02;100486.48;;;23.65
48894;BMP280;34710;35.798;139.446;2023-04-01T06:06:28;100480.23;;;23.86
48894;BMP280;34710;35.798;139.446;2023-04-01T06:08:53;100477.48;;;22.95
48894;BMP280;34710;35.798;139.446;2023-04-01T06:11:24;100469.92;;;23.47
48894;BMP280;34710;35.798;139.446;2023-04-01T06:13:53;100468.37;;;23.70
48894;BMP280;34710;35.798;139.446;2023-04-01T06:16:15;100473.14;;;23.04
48894;BMP280;34710;35.798;139.446;2023-04-01T06:18:49;100471.47;;;21.04
48894;BMP280;34710;35.798;139.446;2023-04-01T06:21:04;100474.02;;;21.84
48894;BMP280;34710;35.798;139.446;2023-04-01T06:23:35;100475.32;;;22.04
48894;BMP280;34710;35.798;139.446;2023-04-01T06:30:44;100478.79;;;21.70
48894;BMP280;34710;35.798;139.446;2023-04-01T06:35:41;100487.54;;;21.57
48894;BMP280;34710;35.798;139.446;2023-04-01T06:38:07;100489.18;;;21.55
48894;BMP280;34710;35.798;139.446;2023-04-01T06:42:58;100485.78;;;21.10
48894;BMP280;34710;35.798;139.446;2023-04-01T06:45:25;100483.62;;;21.79
48894;BMP280;34710;35.798;139.446;2023-04-01T06:47:51;100489.23;;;20.64
48894;BMP280;34710;35.798;139.446;2023-04-01T06:50:11;100487.99;;;20.66
48894;BMP280;34710;35.798;139.446;2023-04-01T06:52:38;100484.17;;;20.03
48894;BMP280;34710;35.798;139.446;2023-04-01T06:55:01;100483.44;;;19.65
48894;BMP280;34710;35.798;139.446;2023-04-01T06:57:26;100478.48;;;19.50
48894;BMP280;34710;35.798;139.446;2023-04-01T06:59:45;100484.61;;;19.51
48894;BMP280;34710;35.798;139.446;2023-04-01T07:02:19;100488.57;;;19.50
48894;BMP280;34710;35.798;139.446;2023-04-01T07:04:38;100485.40;;;19.49
48894;BMP280;34710;35.798;139.446;2023-04-01T07:07:03;100492.99;;;20.00
48894;BMP280;34710;35.798;139.446;2023-04-01T07:09:31;100484.21;;;19.90
48894;BMP280;34710;35.798;139.446;2023-04-01T07:11:56;100482.02;;;18.75
48894;BMP280;34710;35.798;139.446;2023-04-01T07:14:22;100478.77;;;19.24
48894;BMP280;34710;35.798;139.446;2023-04-01T07:16:46;100481.26;;;20.00
48894;BMP280;34710;35.798;139.446;2023-04-01T07:19:12;100480.24;;;19.19
48894;BMP280;34710;35.798;139.446;2023-04-01T07:21:37;100476.61;;;19.53
48894;BMP280;34710;35.798;139.446;2023-04-01T07:24:03;100478.78;;;19.65
48894;BMP280;34710;35.798;139.446;2023-04-01T07:26:25;100480.89;;;19.97
48894;BMP280;34710;35.798;139.446;2023-04-01T07:28:52;100481.22;;;20.44
48894;BMP280;34710;35.798;139.446;2023-04-01T07:31:25;100482.54;;;19.94
48894;BMP280;34710;35.798;139.446;2023-04-01T07:33:45;100478.67;;;19.75
48894;BMP280;34710;35.798;139.446;2023-04-01T07:36:10;100487.90;;;19.38
48894;BMP280;34710;35.798;139.446;2023-04-01T07:38:37;100488.82;;;19.03
48894;BMP280;34710;35.798;139.446;2023-04-01T07:41:03;100489.05;;;18.08
48894;BMP280;34710;35.798;139.446;2023-04-01T07:43:38;100490.17;;;19.06
48894;BMP280;34710;35.798;139.446;2023-04-01T07:45:53;100498.23;;;18.65
48894;BMP280;34710;35.798;139.446;2023-04-01T07:48:22;100495.23;;;19.13
48894;BMP280;34710;35.798;139.446;2023-04-01T07:50:44;100497.53;;;19.16
48894;BMP280;34710;35.798;139.446;2023-04-01T07:53:10;100501.42;;;18.86
48894;BMP280;34710;35.798;139.446;2023-04-01T07:55:34;100506.50;;;18.25
48894;BMP280;34710;35.798;139.446;2023-04-01T07:58:00;100504.98;;;18.73
48894;BMP280;34710;35.798;139.446;2023-04-01T08:00:22;100505.22;;;18.34
48894;BMP280;34710;35.798;139.446;2023-04-01T08:02:58;100510.96;;;18.62
48894;BMP280;34710;35.798;139.446;2023-04-01T08:05:18;100513.33;;;18.38
48894;BMP280;34710;35.798;139.446;2023-04-01T08:07:43;100518.01;;;17.63
48894;BMP280;34710;35.798;139.446;2023-04-01T08:10:07;100521.53;;;17.49
48894;BMP280;34710;35.798;139.446;2023-04-01T08:12:36;100521.12;;;17.86
48894;BMP280;34710;35.798;139.446;2023-04-01T08:15:03;100519.37;;;17.99
48894;BMP280;34710;35.798;139.446;2023-04-01T08:17:23;100519.12;;;18.55
48894;BMP280;34710;35.798;139.446;2023-04-01T08:19:56;100525.16;;;18.49
48894;BMP280;34710;35.798;139.446;2023-04-01T08:22:14;100534.32;;;17.65
48894;BMP280;34710;35.798;139.446;2023-04-01T08:24:37;100535.27;;;17.92
48894;BMP280;34710;35.798;139.446;2023-04-01T08:27:01;100537.08;;;17.97
48894;BMP280;34710;35.798;139.446;2023-04-01T08:29:30;100536.21;;;17.83
48894;BMP280;34710;35.798;139.446;2023-04-01T08:31:54;100535.61;;;18.04
48894;BMP280;34710;35.798;139.446;2023-04-01T08:34:17;100533.23;;;18.20
48894;BMP280;34710;35.798;139.446;2023-04-01T08:36:43;100539.79;;;17.52
48894;BMP280;34710;35.798;139.446;2023-04-01T08:39:09;100536.67;;;18.06
48894;BMP280;34710;35.798;139.446;2023-04-01T08:41:48;100547.03;;;17.36
48894;BMP280;34710;35.798;139.446;2023-04-01T08:46:32;100543.52;;;18.24
48894;BMP280;34710;35.798;139.446;2023-04-01T08:49:04;100549.11;;;18.05
48894;BMP280;34710;35.798;139.446;2023-04-01T08:51:30;100554.02;;;18.08
48894;BMP280;34710;35.798;139.446;2023-04-01T08:53:50;100557.87;;;18.13
48894;BMP280;34710;35.798;139.446;2023-04-01T08:56:11;100557.53;;;18.51
48894;BMP280;34710;35.798;139.446;2023-04-01T09:00:56;100571.17;;;16.90
48894;BMP280;34710;35.798;139.446;2023-04-01T09:03:36;100572.09;;;16.44
48894;BMP280;34710;35.798;139.446;2023-04-01T09:08:23;100577.86;;;16.35
48894;BMP280;34710;35.798;139.446;2023-04-01T09:10:50;100583.26;;;16.24
48894;BMP280;34710;35.798;139.446;2023-04-01T09:20:27;100588.76;;;17.22
48894;BMP280;34710;35.798;139.446;2023-04-01T09:22:54;100589.74;;;16.73
48894;BMP280;34710;35.798;139.446;2023-04-01T09:27:39;100600.16;;;17.24
48894;BMP280;34710;35.798;139.446;2023-04-01T09:34:57;100605.67;;;17.05
48894;BMP280;34710;35.798;139.446;2023-04-01T09:37:21;100607.54;;;16.99
48894;BMP280;34710;35.798;139.446;2023-04-01T09:39:45;100611.70;;;16.77
48894;BMP280;34710;35.798;139.446;2023-04-01T09:42:21;100609.06;;;17.08
48894;BMP280;34710;35.798;139.446;2023-04-01T09:44:36;100612.95;;;16.94
48894;BMP280;34710;35.798;139.446;2023-04-01T09:47:09;100614.45;;;16.72
48894;BMP280;34710;35.798;139.446;2023-04-01T09:49:42;100618.23;;;16.36
48894;BMP280;34710;35.798;139.446;2023-04-01T09:51:59;100625.22;;;16.12
48894;BMP280;34710;35.798;139.446;2023-04-01T09:54:24;100633.19;;;16.15
48894;BMP280;34710;35.798;139.446;2023-04-01T09:56:54;100629.64;;;16.24
48894;BMP280;34710;35.798;139.446;2023-04-01T10:01:46;100636.03;;;16.30
48894;BMP280;34710;35.798;139.446;2023-04-01T10:11:23;100645.97;;;16.90
48894;BMP280;34710;35.798;139.446;2023-04-01T10:23:23;100668.86;;;16.17
48894;BMP280;34710;35.798;139.446;2023-04-01T10:47:42;100722.83;;;16.78
48894;BMP280;34710;35.798;139.446;2023-04-01T10:54:52;100734.67;;;17.20
48894;BMP280;34710;35.798;139.446;2023-04-01T11:26:27;100738.73;;;17.02
48894;BMP280;34710;35.798;139.446;2023-04-01T11:31:28;100737.52;;;16.74
48894;BMP280;34710;35.798;139.446;2023-04-01T11:33:37;100737.77;;;16.46
48894;BMP280;34710;35.798;139.446;2023-04-01T11:36:10;100746.46;;;16.86
48894;BMP280;34710;35.798;139.446;2023-04-01T11:40:54;100751.37;;;17.17
48894;BMP280;34710;35.798;139.446;2023-04-01T11:43:21;100753.87;;;16.66
48894;BMP280;34710;35.798;139.446;2023-04-01T11:45:45;100760.13;;;16.95
48894;BMP280;34710;35.798;139.446;2023-04-01T11:50:42;100767.78;;;16.75
48894;BMP280;34710;35.798;139.446;2023-04-01T11:53:04;100768.50;;;16.25
48894;BMP280;34710;35.798;139.446;2023-04-01T11:55:32;100767.09;;;16.86
48894;BMP280;34710;35.798;139.446;2023-04-01T11:58:02;100769.05;;;16.56
48894;BMP280;34710;35.798;139.446;2023-04-01T12:00:21;100769.80;;;16.80
48894;BMP280;34710;35.798;139.446;2023-04-01T12:03:00;100769.00;;;16.83
48894;BMP280;34710;35.798;139.446;2023-04-01T12:10:02;100779.00;;;16.88
48894;BMP280;34710;35.798;139.446;2023-04-01T12:12:25;100778.19;;;16.95
48894;BMP280;34710;35.798;139.446;2023-04-01T12:14:53;100777.93;;;17.04
48894;BMP280;34710;35.798;139.446;2023-04-01T12:17:18;100783.28;;;17.15
48894;BMP280;34710;35.798;139.446;2023-04-01T12:19:43;100786.58;;;17.20
48894;BMP280;34710;35.798;139.446;2023-04-01T12:22:15;100788.87;;;17.36
48894;BMP280;34710;35.798;139.446;2023-04-01T12:24:39;100788.29;;;17.04
48894;BMP280;34710;35.798;139.446;2023-04-01T12:27:00;100789.96;;;17.03
48894;BMP280;34710;35.798;139.446;2023-04-01T12:31:51;100798.86;;;17.04
48894;BMP280;34710;35.798;139.446;2023-04-01T12:36:42;100807.45;;;17.24
48894;BMP280;34710;35.798;139.446;2023-04-01T12:41:29;100819.96;;;16.62
48894;BMP280;34710;35.798;139.446;2023-04-01T12:44:11;100823.62;;;17.13
48894;BMP280;34710;35.798;139.446;2023-04-01T12:46:19;100827.39;;;17.08
48894;BMP280;34710;35.798;139.446;2023-04-01T12:53:44;100840.43;;;17.08
48894;BMP280;34710;35.798;139.446;2023-04-01T12:55:57;100841.48;;;17.27
48894;BMP280;34710;35.798;139.446;2023-04-01T13:01:00;100853.26;;;17.06
48894;BMP280;34710;35.798;139.446;2023-04-01T13:03:22;100855.54;;;17.33
48894;BMP280;34710;35.798;139.446;2023-04-01T13:08:12;100862.27;;;17.05
48894;BMP280;34710;35.798;139.446;2023-04-01T13:10:41;100861.45;;;16.95
48894;BMP280;34710;35.798;139.446;2023-04-01T13:15:28;100866.36;;;16.74
48894;BMP280;34710;35.798;139.446;2023-04-01T13:17:52;100870.12;;;16.66
48894;BMP280;34710;35.798;139.446;2023-04-01T13:20:19;100869.69;;;16.04
48894;BMP280;34710;35.798;139.446;2023-04-01T13:22:48;100876.51;;;15.81
48894;BMP280;34710;35.798;139.446;2023-04-01T13:25:06;100873.50;;;14.19
48894;BMP280;34710;35.798;139.446;2023-04-01T13:27:33;100869.94;;;13.75
48894;BMP280;34710;35.798;139.446;2023-04-01T13:30:02;100866.67;;;12.54
48894;BMP280;34710;35.798;139.446;2023-04-01T13:32:25;100868.64;;;12.34
48894;BMP280;34710;35.798;139.446;2023-04-01T13:34:54;100866.56;;;11.94
48894;BMP280;34710;35.798;139.446;2023-04-01T13:37:17;100870.35;;;12.94
48894;BMP280;34710;35.798;139.446;2023-04-01T13:42:11;100884.43;;;14.08
48894;BMP280;34710;35.798;139.446;2023-04-01T13:44:30;100886.90;;;14.54
48894;BMP280;34710;35.798;139.446;2023-04-01T13:51:57;100895.77;;;14.59
48894;BMP280;34710;35.798;139.446;2023-04-01T13:56:36;100884.22;;;14.67
48894;BMP280;34710;35.798;139.446;2023-04-01T13:59:05;100883.60;;;14.27
48894;BMP280;34710;35.798;139.446;2023-04-01T14:01:30;100884.71;;;14.09
48894;BMP280;34710;35.798;139.446;2023-04-01T14:06:20;100881.62;;;14.01
48894;BMP280;34710;35.798;139.446;2023-04-01T14:11:13;100881.50;;;13.68
48894;BMP280;34710;35.798;139.446;2023-04-01T14:13:34;100879.27;;;13.95
48894;BMP280;34710;35.798;139.446;2023-04-01T14:16:10;100879.06;;;14.04
48894;BMP280;34710;35.798;139.446;2023-04-01T14:20:53;100870.92;;;14.32
48894;BMP280;34710;35.798;139.446;2023-04-01T14:23:25;100871.50;;;14.04
48894;BMP280;34710;35.798;139.446;2023-04-01T14:25:44;100869.51;;;14.27
48894;BMP280;34710;35.798;139.446;2023-04-01T14:28:13;100872.61;;;14.63
48894;BMP280;34710;35.798;139.446;2023-04-01T14:30:37;100872.88;;;15.06
48894;BMP280;34710;35.798;139.446;2023-04-01T14:32:57;100873.00;;;14.18
48894;BMP280;34710;35.798;139.446;2023-04-01T14:35:27;100873.07;;;14.33
48894;BMP280;34710;35.798;139.446;2023-04-01T14:40:18;100873.63;;;14.67
48894;BMP280;34710;35.798;139.446;2023-04-01T14:42:45;100875.07;;;14.69
48894;BMP280;34710;35.798;139.446;2023-04-01T14:47:33;100876.85;;;14.83
48894;BMP280;34710;35.798;139.446;2023-04-01T14:49:52;100879.21;;;15.02
48894;BMP280;34710;35.798;139.446;2023-04-01T14:52:21;100884.06;;;15.03
48894;BMP280;34710;35.798;139.446;2023-04-01T14:54:44;100886.75;;;14.88
48894;BMP280;34710;35.798;139.446;2023-04-01T14:57:12;100883.77;;;14.86
48894;BMP280;34710;35.798;139.446;2023-04-01T14:59:31;100885.51;;;14.66
48894;BMP280;34710;35.798;139.446;2023-04-01T15:02:03;100883.37;;;14.89
48894;BMP280;34710;35.798;139.446;2023-04-01T15:04:37;100881.53;;;14.75
48894;BMP280;34710;35.798;139.446;2023-04-01T15:06:57;100878.95;;;14.90
48894;BMP280;34710;35.798;139.446;2023-04-01T15:09:21;100883.90;;;14.81
48894;BMP280;34710;35.798;139.446;2023-04-01T15:11:49;100881.72;;;14.80
48894;BMP280;34710;35.798;139.446;2023-04-01T15:14:15;100879.88;;;14.61
48894;BMP280;34710;35.798;139.446;2023-04-01T15:16:34;100872.05;;;14.57
48894;BMP280;34710;35.798;139.446;2023-04-01T15:19:02;100866.98;;;14.76
48894;BMP280;34710;35.798;139.446;2023-04-01T15:23:53;100870.69;;;14.62
48894;BMP280;34710;35.798;139.446;2023-04-01T15:28:40;100866.60;;;14.35
48894;BMP280;34710;35.798;139.446;2023-04-01T15:31:05;100864.09;;;14.66
48894;BMP280;34710;35.798;139.446;2023-04-01T15:33:43;100864.56;;;14.42
48894;BMP280;34710;35.798;139.446;2023-04-01T15:35:58;100866.25;;;14.67
48894;BMP280;34710;35.798;139.446;2023-04-01T15:38:26;100866.72;;;14.68
48894;BMP280;34710;35.798;139.446;2023-04-01T15:40:47;100868.71;;;14.86
48894;BMP280;34710;35.798;139.446;2023-04-01T15:43:17;100869.86;;;14.65
48894;BMP280;34710;35.798;139.446;2023-04-01T15:45:41;100869.36;;;14.75
48894;BMP280;34710;35.798;139.446;2023-04-01T15:48:05;100867.32;;;14.82
48894;BMP280;34710;35.798;139.446;2023-04-01T15:50:37;100871.51;;;14.74
48894;BMP280;34710;35.798;139.446;2023-04-01T15:52:58;100868.76;;;14.75
48894;BMP280;34710;35.798;139.446;2023-04-01T15:55:21;100865.66;;;14.79
48894;BMP280;34710;35.798;139.446;2023-04-01T15:57:49;100861.31;;;14.78
48894;BMP280;34710;35.798;139.446;2023-04-01T16:00:13;100856.07;;;14.66
48894;BMP280;34710;35.798;139.446;2023-04-01T16:02:34;100852.92;;;14.83
48894;BMP280;34710;35.798;139.446;2023-04-01T16:05:00;100851.20;;;14.95
48894;BMP280;34710;35.798;139.446;2023-04-01T16:09:59;100851.07;;;15.04
48894;BMP280;34710;35.798;139.446;2023-04-01T16:12:18;100848.23;;;14.71